createdAt,value
2023-04-26T00:01:05.789Z,100147.98
2023-04-26T00:03:00.748Z,100156.11
2023-04-26T00:04:59.079Z,100153.04
2023-04-26T00:06:52.293Z,100155.70
2023-04-26T00:08:45.139Z,100158.39
2023-04-26T00:10:38.184Z,100155.09
2023-04-26T00:12:31.138Z,100159.08
2023-04-26T00:14:24.430Z,100156.52
2023-04-26T00:16:18.572Z,100156.83
2023-04-26T00:18:12.835Z,100157.88
2023-04-26T00:20:08.533Z,100161.81
2023-04-26T00:22:01.410Z,100161.22
2023-04-26T00:23:55.015Z,100162.58
2023-04-26T00:25:47.919Z,100162.34
2023-04-26T00:27:40.765Z,100163.27
2023-04-26T00:29:34.531Z,100161.66
2023-04-26T00:31:27.634Z,100163.75
2023-04-26T00:33:20.843Z,100162.75
2023-04-26T00:35:13.994Z,100165.61
2023-04-26T00:37:07.365Z,100170.04
2023-04-26T00:39:00.303Z,100168.64
2023-04-26T00:40:53.863Z,100171.40
2023-04-26T00:42:46.709Z,100174.36
2023-04-26T00:44:40.610Z,100175.67
2023-04-26T00:46:33.625Z,100171.25
2023-04-26T00:48:26.471Z,100171.80
2023-04-26T00:50:19.726Z,100173.55
2023-04-26T00:52:13.023Z,100175.34
2023-04-26T00:54:06.957Z,100174.95
2023-04-26T00:56:00.192Z,100177.71
2023-04-26T00:57:53.974Z,100177.06
2023-04-26T00:59:47.024Z,100176.33
2023-04-26T01:01:42.475Z,100175.35
2023-04-26T01:03:35.733Z,100177.28
2023-04-26T01:05:28.839Z,100185.56
2023-04-26T01:07:21.686Z,100182.64
2023-04-26T01:09:16.172Z,100186.45
2023-04-26T01:11:09.830Z,100184.64
2023-04-26T01:13:03.911Z,100184.59
2023-04-26T01:14:57.474Z,100182.74
2023-04-26T01:16:50.928Z,100178.29
2023-04-26T01:18:43.702Z,100177.98
2023-04-26T01:20:36.537Z,100178.14
2023-04-26T01:22:33.157Z,100178.60
2023-04-26T01:24:26.012Z,100177.65
2023-04-26T01:26:19.039Z,100177.31
2023-04-26T01:28:13.231Z,100175.63
2023-04-26T01:30:07.303Z,100174.45
2023-04-26T01:32:00.113Z,100175.15
2023-04-26T01:33:54.535Z,100178.22
2023-04-26T01:35:47.486Z,100177.15
2023-04-26T01:37:40.533Z,100180.77
2023-04-26T01:39:34.588Z,100179.58
2023-04-26T01:41:27.550Z,100179.21
2023-04-26T01:43:21.423Z,100182.84
2023-04-26T01:45:14.264Z,100177.13
2023-04-26T01:47:26.810Z,100176.32
2023-04-26T01:49:19.823Z,100178.09
2023-04-26T01:51:14.114Z,100183.87
2023-04-26T01:53:07.250Z,100181.16
2023-04-26T01:55:01.881Z,100179.11
2023-04-26T01:56:54.788Z,100178.14
2023-04-26T01:58:47.748Z,100181.37
2023-04-26T02:00:40.683Z,100182.80
2023-04-26T02:02:33.596Z,100182.11
2023-04-26T02:04:28.236Z,100187.07
2023-04-26T02:06:21.935Z,100186.62
2023-04-26T02:08:15.550Z,100188.00
2023-04-26T02:10:09.228Z,100185.23
2023-04-26T02:12:02.988Z,100188.21
2023-04-26T02:13:55.928Z,100194.48
2023-04-26T02:15:50.136Z,100189.26
2023-04-26T02:17:43.072Z,100192.34
2023-04-26T02:19:36.108Z,100193.86
2023-04-26T02:21:30.803Z,100193.83
2023-04-26T02:23:24.458Z,100192.69
2023-04-26T02:25:17.309Z,100193.69
2023-04-26T02:27:10.152Z,100190.55
2023-04-26T02:29:03.001Z,100195.92
2023-04-26T02:30:56.872Z,100198.79
2023-04-26T02:32:50.400Z,100197.86
2023-04-26T02:34:44.922Z,100194.31
2023-04-26T02:36:37.802Z,100197.08
2023-04-26T02:38:31.016Z,100195.14
2023-04-26T02:40:23.862Z,100198.52
2023-04-26T02:42:17.528Z,100197.67
2023-04-26T02:44:10.474Z,100197.52
2023-04-26T02:46:03.422Z,100197.86
2023-04-26T02:47:57.249Z,100198.65
2023-04-26T02:49:51.400Z,100198.48
2023-04-26T02:51:44.421Z,100198.56
2023-04-26T02:53:37.362Z,100197.17
2023-04-26T02:55:30.314Z,100192.38
2023-04-26T02:57:23.469Z,100199.29
2023-04-26T02:59:16.458Z,100195.77
2023-04-26T03:01:09.380Z,100196.24
2023-04-26T03:03:03.071Z,100197.90
2023-04-26T03:04:56.184Z,100199.27
2023-04-26T03:06:49.024Z,100201.77
2023-04-26T03:08:41.874Z,100204.61
2023-04-26T03:10:34.717Z,100204.40
2023-04-26T03:12:27.661Z,100200.06
2023-04-26T03:14:20.510Z,100203.09
2023-04-26T03:16:13.400Z,100202.93
2023-04-26T03:18:06.370Z,100203.96
2023-04-26T03:20:00.598Z,100205.86
2023-04-26T03:21:56.094Z,100207.90
2023-04-26T03:23:49.150Z,100206.89
2023-04-26T03:25:42.170Z,100214.63
2023-04-26T03:27:35.245Z,100219.80
2023-04-26T03:29:28.197Z,100221.52
2023-04-26T03:31:21.936Z,100221.54
2023-04-26T03:33:14.976Z,100225.50
2023-04-26T03:35:08.890Z,100224.51
2023-04-26T03:37:03.405Z,100226.77
2023-04-26T03:38:56.722Z,100229.56
2023-04-26T03:40:50.288Z,100226.55
2023-04-26T03:42:43.128Z,100231.17
2023-04-26T03:44:35.985Z,100231.27
2023-04-26T03:46:29.159Z,100230.95
2023-04-26T03:48:22.801Z,100235.20
2023-04-26T03:50:15.693Z,100236.77
2023-04-26T03:52:08.591Z,100237.72
2023-04-26T03:54:01.750Z,100239.98
2023-04-26T03:55:54.892Z,100240.02
2023-04-26T03:57:48.358Z,100240.89
2023-04-26T03:59:41.510Z,100242.34
2023-04-26T04:01:34.351Z,100242.55
2023-04-26T04:03:27.860Z,100241.60
2023-04-26T04:05:21.588Z,100242.68
2023-04-26T04:07:14.531Z,100245.26
2023-04-26T04:09:07.499Z,100250.54
2023-04-26T04:11:01.650Z,100252.56
2023-04-26T04:12:54.813Z,100251.73
2023-04-26T04:14:47.857Z,100256.05
2023-04-26T04:16:40.809Z,100254.02
2023-04-26T04:18:34.159Z,100257.30
2023-04-26T04:20:27.113Z,100255.33
2023-04-26T04:22:22.209Z,100261.67
2023-04-26T04:24:15.667Z,100258.73
2023-04-26T04:26:09.125Z,100258.07
2023-04-26T04:28:05.155Z,100258.67
2023-04-26T04:29:58.201Z,100260.56
2023-04-26T04:31:51.462Z,100261.55
2023-04-26T04:33:44.403Z,100264.52
2023-04-26T04:35:37.964Z,100264.59
2023-04-26T04:37:33.782Z,100266.99
2023-04-26T04:39:26.853Z,100269.36
2023-04-26T04:41:22.441Z,100273.79
2023-04-26T04:43:16.850Z,100272.79
2023-04-26T04:45:10.592Z,100271.98
2023-04-26T04:47:04.868Z,100274.30
2023-04-26T04:48:58.726Z,100272.30
2023-04-26T04:50:51.605Z,100271.44
2023-04-26T04:52:44.545Z,100275.42
2023-04-26T04:54:37.587Z,100274.48
2023-04-26T04:56:30.751Z,100277.95
2023-04-26T04:58:24.049Z,100282.69
2023-04-26T05:00:18.679Z,100287.14
2023-04-26T05:02:30.554Z,100288.27
2023-04-26T05:04:53.688Z,100287.10
2023-04-26T05:06:47.403Z,100285.96
2023-04-26T05:08:52.892Z,100286.96
2023-04-26T05:11:26.134Z,100284.29
2023-04-26T05:13:19.082Z,100284.33
2023-04-26T05:15:12.442Z,100291.81
2023-04-26T05:17:05.743Z,100288.62
2023-04-26T05:18:59.007Z,100291.16
2023-04-26T05:20:51.893Z,100290.75
2023-04-26T05:22:44.744Z,100298.33
2023-04-26T05:24:38.103Z,100299.06
2023-04-26T05:26:31.256Z,100306.31
2023-04-26T05:28:43.317Z,100307.36
2023-04-26T05:30:59.959Z,100307.20
2023-04-26T05:33:05.836Z,100308.55
2023-04-26T05:35:08.985Z,100308.30
2023-04-26T05:37:01.845Z,100309.05
2023-04-26T05:38:54.749Z,100309.63
2023-04-26T05:40:50.604Z,100308.93
2023-04-26T05:42:43.858Z,100311.39
2023-04-26T05:44:37.098Z,100309.58
2023-04-26T05:46:30.165Z,100313.09
2023-04-26T05:48:24.859Z,100314.92
2023-04-26T05:50:17.705Z,100315.25
2023-04-26T05:52:10.664Z,100310.44
2023-04-26T05:54:03.799Z,100311.90
2023-04-26T05:55:56.850Z,100313.42
2023-04-26T05:57:50.926Z,100312.98
2023-04-26T05:59:44.594Z,100315.27
2023-04-26T06:01:37.696Z,100321.27
2023-04-26T06:03:31.014Z,100318.02
2023-04-26T06:05:24.432Z,100316.25
2023-04-26T06:07:17.607Z,100324.06
2023-04-26T06:09:13.218Z,100321.70
2023-04-26T06:11:06.172Z,100319.35
2023-04-26T06:12:59.218Z,100320.45
2023-04-26T06:14:53.023Z,100322.80
2023-04-26T06:16:47.280Z,100328.58
2023-04-26T06:18:40.232Z,100321.17
2023-04-26T06:20:33.621Z,100319.63
2023-04-26T06:22:26.457Z,100322.73
2023-04-26T06:24:20.359Z,100321.45
2023-04-26T06:26:13.171Z,100329.39
2023-04-26T06:28:06.040Z,100327.79
2023-04-26T06:29:58.923Z,100327.63
2023-04-26T06:31:51.972Z,100325.59
2023-04-26T06:33:45.604Z,100329.85
2023-04-26T06:35:42.080Z,100328.45
2023-04-26T06:37:35.733Z,100326.64
2023-04-26T06:39:28.795Z,100327.30
2023-04-26T06:41:22.557Z,100324.80
2023-04-26T06:43:15.502Z,100323.05
2023-04-26T06:45:19.726Z,100320.48
2023-04-26T06:47:12.670Z,100326.73
2023-04-26T06:49:05.609Z,100321.77
2023-04-26T06:50:58.456Z,100319.48
2023-04-26T06:52:51.609Z,100321.40
2023-04-26T06:54:55.921Z,100327.98
2023-04-26T06:56:49.696Z,100328.88
2023-04-26T06:59:03.007Z,100324.08
2023-04-26T07:00:56.203Z,100326.02
2023-04-26T07:02:49.505Z,100330.39
2023-04-26T07:04:43.059Z,100332.24
2023-04-26T07:06:38.197Z,100331.29
2023-04-26T07:08:31.547Z,100334.68
2023-04-26T07:10:26.207Z,100335.73
2023-04-26T07:12:19.185Z,100338.34
2023-04-26T07:14:12.340Z,100336.10
2023-04-26T07:16:05.210Z,100335.33
2023-04-26T07:17:58.319Z,100337.42
2023-04-26T07:19:51.545Z,100337.92
2023-04-26T07:21:44.448Z,100337.44
2023-04-26T07:23:37.509Z,100339.27
2023-04-26T07:25:30.437Z,100337.40
2023-04-26T07:27:23.496Z,100337.73
2023-04-26T07:29:16.542Z,100336.61
2023-04-26T07:31:10.609Z,100336.98
2023-04-26T07:33:04.007Z,100341.72
2023-04-26T07:34:57.433Z,100347.84
2023-04-26T07:36:50.276Z,100352.45
2023-04-26T07:38:43.332Z,100350.86
2023-04-26T07:40:36.811Z,100353.85
2023-04-26T07:42:29.737Z,100358.84
2023-04-26T07:44:22.580Z,100360.02
2023-04-26T07:46:15.706Z,100360.63
2023-04-26T07:48:08.918Z,100360.40
2023-04-26T07:50:01.960Z,100352.98
2023-04-26T07:51:56.532Z,100354.22
2023-04-26T07:53:49.473Z,100358.77
2023-04-26T07:55:42.424Z,100358.05
2023-04-26T07:57:35.427Z,100358.71
2023-04-26T07:59:28.421Z,100361.02
2023-04-26T08:01:21.425Z,100362.36
2023-04-26T08:03:18.005Z,100361.45
2023-04-26T08:05:11.297Z,100365.10
2023-04-26T08:07:04.316Z,100363.80
2023-04-26T08:08:57.307Z,100361.57
2023-04-26T08:10:50.207Z,100363.09
2023-04-26T08:12:44.125Z,100362.55
2023-04-26T08:14:39.539Z,100363.58
2023-04-26T08:16:34.336Z,100367.47
2023-04-26T08:18:30.861Z,100370.87
2023-04-26T08:20:25.341Z,100370.21
2023-04-26T08:22:20.437Z,100370.83
2023-04-26T08:24:15.650Z,100372.88
2023-04-26T08:26:10.285Z,100368.28
2023-04-26T08:28:05.929Z,100367.64
2023-04-26T08:30:01.082Z,100366.05
2023-04-26T08:31:54.954Z,100362.33
2023-04-26T08:33:47.797Z,100361.80
2023-04-26T08:35:41.298Z,100362.11
2023-04-26T08:37:34.209Z,100369.42
2023-04-26T08:39:27.258Z,100369.73
2023-04-26T08:41:23.526Z,100372.95
2023-04-26T08:43:19.631Z,100374.29
2023-04-26T08:45:12.550Z,100379.16
2023-04-26T08:47:44.714Z,100381.31
2023-04-26T08:49:44.939Z,100380.34
2023-04-26T08:51:38.603Z,100379.67
2023-04-26T08:53:35.040Z,100379.43
2023-04-26T08:55:28.829Z,100379.36
2023-04-26T08:57:22.782Z,100385.48
2023-04-26T08:59:16.151Z,100387.55
2023-04-26T09:01:10.480Z,100385.73
2023-04-26T09:03:04.749Z,100387.73
2023-04-26T09:04:57.870Z,100388.23
2023-04-26T09:06:56.832Z,100379.67
2023-04-26T09:08:53.384Z,100376.00
2023-04-26T09:10:46.696Z,100378.31
2023-04-26T09:12:42.442Z,100377.13
2023-04-26T09:14:35.594Z,100377.81
2023-04-26T09:16:36.932Z,100383.77
2023-04-26T09:18:31.423Z,100384.55
2023-04-26T09:20:28.017Z,100392.86
2023-04-26T09:22:32.063Z,100392.59
2023-04-26T09:24:25.009Z,100392.17
2023-04-26T09:26:22.853Z,100392.99
2023-04-26T09:28:20.129Z,100390.01
2023-04-26T09:30:17.763Z,100393.52
2023-04-26T09:32:11.272Z,100391.77
2023-04-26T09:34:04.493Z,100394.79
2023-04-26T09:36:13.449Z,100395.73
2023-04-26T09:38:13.294Z,100397.98
2023-04-26T09:40:19.983Z,100399.79
2023-04-26T09:42:19.002Z,100394.70
2023-04-26T09:44:24.637Z,100401.60
2023-04-26T09:46:26.355Z,100400.55
2023-04-26T09:48:23.167Z,100398.63
2023-04-26T09:50:30.105Z,100397.86
2023-04-26T09:52:23.052Z,100396.12
2023-04-26T09:54:16.000Z,100396.95
2023-04-26T09:56:11.830Z,100398.17
2023-04-26T09:58:09.464Z,100398.97
2023-04-26T10:00:12.246Z,100397.80
2023-04-26T10:02:10.318Z,100401.08
2023-04-26T10:04:04.690Z,100403.06
2023-04-26T10:05:57.751Z,100403.41
2023-04-26T10:07:51.930Z,100401.02
2023-04-26T10:09:45.489Z,100403.27
2023-04-26T10:11:40.385Z,100404.98
2023-04-26T10:13:34.267Z,100403.82
2023-04-26T10:15:28.025Z,100405.17
2023-04-26T10:17:21.212Z,100409.23
2023-04-26T10:19:14.427Z,100407.54
2023-04-26T10:21:23.149Z,100412.98
2023-04-26T10:23:25.511Z,100414.58
2023-04-26T10:25:19.084Z,100415.85
2023-04-26T10:27:11.886Z,100417.99
2023-04-26T10:29:05.321Z,100420.29
2023-04-26T10:31:01.798Z,100421.05
2023-04-26T10:32:57.450Z,100426.01
2023-04-26T10:35:12.364Z,100432.45
2023-04-26T10:37:18.465Z,100436.95
2023-04-26T10:39:23.173Z,100437.64
2023-04-26T10:41:33.109Z,100439.27
2023-04-26T10:43:30.083Z,100440.41
2023-04-26T10:45:30.354Z,100436.66
2023-04-26T10:47:29.612Z,100438.75
2023-04-26T10:49:26.667Z,100437.93
2023-04-26T10:51:19.693Z,100438.52
2023-04-26T10:53:13.658Z,100436.73
2023-04-26T10:55:08.118Z,100433.05
2023-04-26T10:57:01.383Z,100431.23
2023-04-26T10:59:18.035Z,100429.59
2023-04-26T11:01:21.571Z,100425.75
2023-04-26T11:03:15.558Z,100422.58
2023-04-26T11:05:09.199Z,100422.96
2023-04-26T11:07:03.707Z,100423.81
2023-04-26T11:09:00.745Z,100421.46
2023-04-26T11:11:03.341Z,100426.91
2023-04-26T11:13:01.904Z,100420.65
2023-04-26T11:14:56.081Z,100420.04
2023-04-26T11:16:48.926Z,100421.71
2023-04-26T11:18:44.093Z,100423.21
2023-04-26T11:20:36.972Z,100421.30
2023-04-26T11:22:30.049Z,100422.73
2023-04-26T11:24:27.689Z,100424.41
2023-04-26T11:26:20.509Z,100424.46
2023-04-26T11:28:13.386Z,100425.85
2023-04-26T11:30:07.141Z,100431.88
2023-04-26T11:32:00.036Z,100436.52
2023-04-26T11:33:52.942Z,100439.08
2023-04-26T11:35:52.398Z,100437.22
2023-04-26T11:37:45.953Z,100438.29
2023-04-26T11:39:38.730Z,100437.46
2023-04-26T11:41:32.203Z,100438.13
2023-04-26T11:43:39.521Z,100436.81
2023-04-26T11:45:34.203Z,100440.27
2023-04-26T11:47:30.837Z,100437.10
2023-04-26T11:49:24.375Z,100440.98
2023-04-26T11:51:17.630Z,100445.80
2023-04-26T11:53:10.600Z,100445.98
2023-04-26T11:55:07.461Z,100449.31
2023-04-26T11:57:06.023Z,100440.52
2023-04-26T11:59:00.607Z,100442.45
2023-04-26T12:01:02.053Z,100441.73
2023-04-26T12:03:06.576Z,100439.27
2023-04-26T12:05:00.189Z,100440.79
2023-04-26T12:06:53.369Z,100436.13
2023-04-26T12:08:53.814Z,100434.52
2023-04-26T12:10:47.815Z,100441.42
2023-04-26T12:12:45.750Z,100434.72
2023-04-26T12:14:42.293Z,100438.36
2023-04-26T12:16:44.436Z,100440.65
2023-04-26T12:18:37.784Z,100437.70
2023-04-26T12:20:34.877Z,100437.64
2023-04-26T12:22:28.595Z,100437.50
2023-04-26T12:24:30.806Z,100430.38
2023-04-26T12:26:44.459Z,100430.85
2023-04-26T12:28:37.858Z,100427.99
2023-04-26T12:31:27.572Z,100434.34
2023-04-26T12:33:31.188Z,100438.52
2023-04-26T12:35:25.326Z,100430.89
2023-04-26T12:37:18.358Z,100432.67
2023-04-26T12:39:14.533Z,100436.27
2023-04-26T12:41:07.939Z,100434.81
2023-04-26T12:43:01.205Z,100433.73
2023-04-26T12:44:54.042Z,100434.17
2023-04-26T12:46:47.106Z,100431.58
2023-04-26T12:48:43.191Z,100431.91
2023-04-26T12:50:57.674Z,100437.86
2023-04-26T12:53:07.821Z,100440.71
2023-04-26T12:55:00.660Z,100444.07
2023-04-26T12:56:53.845Z,100446.75
2023-04-26T12:58:47.173Z,100443.98
2023-04-26T13:00:39.971Z,100444.02
2023-04-26T13:02:34.327Z,100447.50
2023-04-26T13:04:27.712Z,100447.02
2023-04-26T13:06:21.133Z,100448.00
2023-04-26T13:08:14.547Z,100440.93
2023-04-26T13:10:12.725Z,100444.27
2023-04-26T13:12:06.220Z,100452.58
2023-04-26T13:13:59.784Z,100450.05
2023-04-26T13:15:53.694Z,100451.48
2023-04-26T13:17:47.332Z,100455.88
2023-04-26T13:19:40.257Z,100451.81
2023-04-26T13:21:33.284Z,100457.29
2023-04-26T13:23:26.155Z,100459.10
2023-04-26T13:25:19.404Z,100458.16
2023-04-26T13:27:13.305Z,100450.98
2023-04-26T13:29:06.304Z,100454.86
2023-04-26T13:30:59.710Z,100454.41
2023-04-26T13:32:52.782Z,100455.80
2023-04-26T13:34:45.886Z,100458.02
2023-04-26T13:36:39.591Z,100452.70
2023-04-26T13:38:33.017Z,100449.27
2023-04-26T13:40:26.062Z,100459.17
2023-04-26T13:42:19.111Z,100461.65
2023-04-26T13:44:14.331Z,100460.34
2023-04-26T13:46:08.118Z,100464.86
2023-04-26T13:48:01.163Z,100466.94
2023-04-26T13:49:54.620Z,100471.28
2023-04-26T13:51:47.532Z,100473.82
2023-04-26T13:53:40.898Z,100474.04
2023-04-26T13:55:33.843Z,100475.39
2023-04-26T13:57:26.658Z,100477.90
2023-04-26T13:59:20.674Z,100481.04
2023-04-26T14:01:14.268Z,100479.60
2023-04-26T14:03:15.601Z,100482.38
2023-04-26T14:05:10.341Z,100481.21
2023-04-26T14:07:05.243Z,100486.77
2023-04-26T14:08:58.616Z,100490.35
2023-04-26T14:10:51.670Z,100486.17
2023-04-26T14:12:44.611Z,100486.40
2023-04-26T14:14:37.564Z,100489.88
2023-04-26T14:16:30.576Z,100484.63
2023-04-26T14:18:23.649Z,100486.46
2023-04-26T14:20:16.615Z,100487.53
2023-04-26T14:22:13.169Z,100491.42
2023-04-26T14:24:06.602Z,100494.10
2023-04-26T14:25:59.603Z,100493.27
2023-04-26T14:27:54.953Z,100503.91
2023-04-26T14:29:48.027Z,100500.71
2023-04-26T14:31:40.974Z,100501.34
2023-04-26T14:33:34.412Z,100501.73
2023-04-26T14:35:27.260Z,100502.85
2023-04-26T14:37:22.938Z,100499.55
2023-04-26T14:39:16.340Z,100502.05
2023-04-26T14:41:13.685Z,100501.73
2023-04-26T14:43:06.556Z,100506.50
2023-04-26T14:44:59.749Z,100502.88
2023-04-26T14:46:53.551Z,100502.71
2023-04-26T14:48:46.910Z,100505.77
2023-04-26T14:50:40.219Z,100507.33
2023-04-26T14:52:36.512Z,100508.98
2023-04-26T14:54:29.360Z,100503.34
2023-04-26T14:56:23.925Z,100510.45
2023-04-26T14:58:19.395Z,100505.48
2023-04-26T15:00:16.982Z,100506.06
2023-04-26T15:02:10.026Z,100500.66
2023-04-26T15:04:03.747Z,100502.56
2023-04-26T15:05:57.179Z,100503.34
2023-04-26T15:07:50.996Z,100499.48
2023-04-26T15:09:43.875Z,100499.02
2023-04-26T15:11:53.753Z,100501.70
2023-04-26T15:13:46.978Z,100497.41
2023-04-26T15:15:39.924Z,100498.98
2023-04-26T15:17:34.625Z,100498.38
2023-04-26T15:19:28.621Z,100500.44
2023-04-26T15:21:23.405Z,100502.83
2023-04-26T15:23:16.927Z,100503.66
2023-04-26T15:25:11.464Z,100505.83
2023-04-26T15:27:05.516Z,100506.17
2023-04-26T15:28:58.659Z,100502.63
2023-04-26T15:30:57.079Z,100508.80
2023-04-26T15:32:53.073Z,100507.58
2023-04-26T15:34:46.000Z,100516.42
2023-04-26T15:36:38.853Z,100515.23
2023-04-26T15:38:34.049Z,100514.36
2023-04-26T15:40:28.319Z,100518.46
2023-04-26T15:42:21.886Z,100519.55
2023-04-26T15:44:14.988Z,100526.75
2023-04-26T15:46:08.045Z,100525.76
2023-04-26T15:48:01.340Z,100524.00
2023-04-26T15:49:55.210Z,100524.64
2023-04-26T15:51:48.163Z,100524.02
2023-04-26T15:53:43.851Z,100528.40
2023-04-26T15:55:37.234Z,100526.81
2023-04-26T15:57:30.386Z,100529.27
2023-04-26T15:59:23.334Z,100529.49
2023-04-26T16:01:16.648Z,100528.39
2023-04-26T16:03:10.115Z,100530.65
2023-04-26T16:05:04.663Z,100524.55
2023-04-26T16:06:57.704Z,100525.02
2023-04-26T16:08:50.851Z,100531.89
2023-04-26T16:10:43.789Z,100535.34
2023-04-26T16:12:41.853Z,100533.49
2023-04-26T16:14:34.631Z,100537.35
2023-04-26T16:16:27.678Z,100540.61
2023-04-26T16:18:23.466Z,100535.83
2023-04-26T16:20:16.513Z,100538.10
2023-04-26T16:22:09.461Z,100542.80
2023-04-26T16:24:02.545Z,100545.33
2023-04-26T16:25:55.714Z,100548.04
2023-04-26T16:27:48.823Z,100556.14
2023-04-26T16:29:41.687Z,100558.14
2023-04-26T16:31:34.942Z,100557.63
2023-04-26T16:33:28.361Z,100558.43
2023-04-26T16:35:21.644Z,100558.08
2023-04-26T16:37:14.939Z,100559.90
2023-04-26T16:39:07.994Z,100560.52
2023-04-26T16:41:01.894Z,100562.03
2023-04-26T16:42:54.981Z,100563.14
2023-04-26T16:44:47.814Z,100565.05
2023-04-26T16:46:41.920Z,100567.27
2023-04-26T16:48:36.731Z,100566.00
2023-04-26T16:50:29.553Z,100568.47
2023-04-26T16:52:22.334Z,100572.98
2023-04-26T16:54:15.125Z,100577.76
2023-04-26T16:56:08.382Z,100577.59
2023-04-26T16:58:01.215Z,100579.05
2023-04-26T16:59:54.271Z,100580.86
2023-04-26T17:01:47.921Z,100583.50
2023-04-26T17:03:43.136Z,100580.28
2023-04-26T17:05:41.199Z,100579.83
2023-04-26T17:07:34.316Z,100583.98
2023-04-26T17:09:27.811Z,100584.86
2023-04-26T17:11:20.615Z,100585.54
2023-04-26T17:13:13.917Z,100586.20
2023-04-26T17:15:08.692Z,100587.36
2023-04-26T17:17:01.549Z,100587.77
2023-04-26T17:18:54.386Z,100587.36
2023-04-26T17:20:52.878Z,100590.38
2023-04-26T17:22:45.816Z,100592.64
2023-04-26T17:24:38.761Z,100593.69
2023-04-26T17:26:31.593Z,100595.40
2023-04-26T17:28:24.456Z,100599.38
2023-04-26T17:30:17.411Z,100597.61
2023-04-26T17:32:10.484Z,100597.58
2023-04-26T17:34:04.878Z,100599.16
2023-04-26T17:35:58.097Z,100602.30
2023-04-26T17:37:51.249Z,100605.17
2023-04-26T17:39:44.194Z,100608.81
2023-04-26T17:41:38.497Z,100606.92
2023-04-26T17:43:31.373Z,100608.63
2023-04-26T17:45:24.595Z,100610.92
2023-04-26T17:47:17.831Z,100613.34
2023-04-26T17:49:10.979Z,100611.91
2023-04-26T17:51:03.965Z,100612.20
2023-04-26T17:52:57.371Z,100614.41
2023-04-26T17:54:50.238Z,100616.04
2023-04-26T17:56:46.469Z,100614.02
2023-04-26T17:58:39.323Z,100615.31
2023-04-26T18:00:32.275Z,100616.02
2023-04-26T18:02:25.474Z,100618.76
2023-04-26T18:04:18.937Z,100618.88
2023-04-26T18:06:12.433Z,100620.84
2023-04-26T18:08:05.415Z,100619.58
2023-04-26T18:09:58.548Z,100621.77
2023-04-26T18:11:51.479Z,100626.06
2023-04-26T18:13:44.327Z,100626.00
2023-04-26T18:15:37.170Z,100628.63
2023-04-26T18:17:30.155Z,100634.00
2023-04-26T18:19:23.473Z,100632.48
2023-04-26T18:21:16.733Z,100633.79
2023-04-26T18:23:10.092Z,100638.20
2023-04-26T18:25:04.014Z,100636.27
2023-04-26T18:26:56.906Z,100637.71
2023-04-26T18:28:49.756Z,100639.04
2023-04-26T18:30:42.718Z,100639.27
2023-04-26T18:32:35.713Z,100642.06
2023-04-26T18:34:28.717Z,100646.31
2023-04-26T18:36:23.190Z,100643.38
2023-04-26T18:38:19.512Z,100646.68
2023-04-26T18:40:13.074Z,100648.24
2023-04-26T18:42:06.958Z,100650.06
2023-04-26T18:43:59.888Z,100653.04
2023-04-26T18:45:53.030Z,100652.77
2023-04-26T18:47:46.306Z,100653.79
2023-04-26T18:49:39.169Z,100655.92
2023-04-26T18:51:32.916Z,100657.66
2023-04-26T18:53:25.864Z,100659.33
2023-04-26T18:55:18.963Z,100661.00
2023-04-26T18:57:11.959Z,100661.70
2023-04-26T18:59:04.908Z,100661.15
2023-04-26T19:00:57.855Z,100666.64
2023-04-26T19:02:51.311Z,100667.80
2023-04-26T19:04:45.509Z,100669.75
2023-04-26T19:06:42.645Z,100669.39
2023-04-26T19:08:36.206Z,100668.73
2023-04-26T19:10:29.051Z,100672.92
2023-04-26T19:12:22.104Z,100676.88
2023-04-26T19:14:14.948Z,100677.80
2023-04-26T19:16:09.239Z,100678.90
2023-04-26T19:18:02.816Z,100680.45
2023-04-26T19:19:55.845Z,100682.54
2023-04-26T19:21:48.608Z,100678.84
2023-04-26T19:23:41.539Z,100682.92
2023-04-26T19:25:34.889Z,100685.59
2023-04-26T19:27:27.842Z,100686.04
2023-04-26T19:29:21.092Z,100687.61
2023-04-26T19:31:14.060Z,100687.02
2023-04-26T19:33:07.474Z,100686.14
2023-04-26T19:35:00.736Z,100688.20
2023-04-26T19:36:53.910Z,100686.89
2023-04-26T19:38:48.613Z,100688.48
2023-04-26T19:40:42.763Z,100688.45
2023-04-26T19:42:35.828Z,100688.84
2023-04-26T19:44:29.112Z,100689.96
2023-04-26T19:46:22.144Z,100692.05
2023-04-26T19:48:15.093Z,100690.77
2023-04-26T19:50:08.541Z,100688.60
2023-04-26T19:52:03.236Z,100690.11
2023-04-26T19:53:56.951Z,100695.20
2023-04-26T19:55:51.640Z,100695.12
2023-04-26T19:57:46.275Z,100696.55
2023-04-26T19:59:39.528Z,100697.98
2023-04-26T20:01:32.473Z,100695.23
2023-04-26T20:03:27.304Z,100695.93
2023-04-26T20:05:20.937Z,100692.95
2023-04-26T20:07:14.665Z,100690.83
2023-04-26T20:09:09.595Z,100689.54
2023-04-26T20:11:04.811Z,100691.13
2023-04-26T20:12:58.853Z,100688.13
2023-04-26T20:14:51.818Z,100694.05
2023-04-26T20:16:44.722Z,100694.33
2023-04-26T20:18:38.335Z,100693.47
2023-04-26T20:20:32.866Z,100696.11
2023-04-26T20:22:26.681Z,100695.12
2023-04-26T20:24:19.629Z,100692.88
2023-04-26T20:26:17.037Z,100697.59
2023-04-26T20:28:14.541Z,100697.53
2023-04-26T20:30:15.796Z,100694.84
2023-04-26T20:32:09.266Z,100697.62
2023-04-26T20:34:03.107Z,100698.41
2023-04-26T20:35:56.259Z,100697.31
2023-04-26T20:37:49.105Z,100701.72
2023-04-26T20:39:42.873Z,100695.39
2023-04-26T20:41:36.546Z,100703.76
2023-04-26T20:43:29.485Z,100706.79
2023-04-26T20:45:22.329Z,100704.90
2023-04-26T20:47:15.809Z,100704.15
2023-04-26T20:49:09.315Z,100702.09
2023-04-26T20:51:03.314Z,100703.09
2023-04-26T20:52:56.380Z,100701.55
2023-04-26T20:54:49.230Z,100701.36
2023-04-26T20:56:41.998Z,100702.30
2023-04-26T20:58:35.021Z,100705.78
2023-04-26T21:00:27.966Z,100704.77
2023-04-26T21:02:21.405Z,100709.86
2023-04-26T21:04:14.694Z,100707.86
2023-04-26T21:06:07.697Z,100710.10
2023-04-26T21:08:00.701Z,100710.23
2023-04-26T21:09:53.706Z,100710.06
2023-04-26T21:11:46.577Z,100715.02
2023-04-26T21:13:39.527Z,100715.61
2023-04-26T21:15:33.538Z,100712.94
2023-04-26T21:17:26.467Z,100712.84
2023-04-26T21:19:20.111Z,100718.21
2023-04-26T21:21:12.962Z,100716.84
2023-04-26T21:23:05.757Z,100719.70
2023-04-26T21:24:58.583Z,100714.77
2023-04-26T21:26:51.496Z,100719.36
2023-04-26T21:28:44.339Z,100723.85
2023-04-26T21:30:37.185Z,100728.16
2023-04-26T21:32:30.040Z,100724.30
2023-04-26T21:34:22.977Z,100726.31
2023-04-26T21:36:16.438Z,100729.92
2023-04-26T21:38:09.286Z,100735.35
2023-04-26T21:40:02.131Z,100737.15
2023-04-26T21:41:54.977Z,100735.10
2023-04-26T21:43:47.826Z,100734.70
2023-04-26T21:45:41.589Z,100733.92
2023-04-26T21:47:34.527Z,100739.17
2023-04-26T21:49:27.398Z,100739.56